Temp: 17.2°C   Baro: 1010.1mb
  Wind: 11.0mph   Dir: NW (312°)
  Rain: 0.8mm (0.0mm/hr)
  Solar: 113W/m2  Hum: 92%
 
Bath Spa Weather Station Historical Data
Daily Summary for June 11, 2019 Units:  Both    English   Metric
Daily Weekly Monthly Yearly Custom
  High: Low: Average:
Temperature: 73 °F /  22.8 °C 59.7 °F /  15.4 °C 65 °F /  18.3 °C
Dew Point: 60.6 °F /  15.9 °C 51.8 °F /  11 °C 57.1 °F /  13.9 °C
Humidity: 89% 61% 76%
Wind Speed: 13mph /  20.9km/h - 3.6mph /  5.8km/h
Wind Gust: 16mph /  25.7km/h - -
Wind- - WNW
Pressure: 29.98 in /  1015.1 hPa 29.89 in /  1012.1 hPa -
Precipitation: 0.00 in /  0 mm    
Historical Graphs
 
 
Tabular Data for June 11, 2019
Time Temperature Dew Point Pressure Wind Wind Speed Wind Gust Humidity Rainfall Rate (Hourly) solar
00:04 61.5 °F /  16.4 °C 52 °F /  11.1 °C 29.98in /  1015.1hPa WNW 5mph /  8km/h 5mph /  8km/h 71% 0.00in /  0mm 0 W/m2
00:09 61.3 °F /  16.3 °C 51.8 °F /  11 °C 29.97in /  1014.8hPa Calm   3mph /  4.8km/h 71% 0.00in /  0mm 0 W/m2
00:14 61.3 °F /  16.3 °C 51.8 °F /  11 °C 29.98in /  1015.1hPa Calm   1mph /  1.6km/h 71% 0.00in /  0mm 0 W/m2
00:19 61.5 °F /  16.4 °C 52 °F /  11.1 °C 29.98in /  1015.1hPa Calm   1mph /  1.6km/h 71% 0.00in /  0mm 0 W/m2
00:24 61.3 °F /  16.3 °C 51.8 °F /  11 °C 29.98in /  1015.1hPa Calm   4mph /  6.4km/h 71% 0.00in /  0mm 0 W/m2
00:29 61.5 °F /  16.4 °C 52 °F /  11.1 °C 29.98in /  1015.1hPa Calm   1mph /  1.6km/h 71% 0.00in /  0mm 0 W/m2
00:34 61.5 °F /  16.4 °C 52.3 °F /  11.3 °C 29.97in /  1014.8hPa Calm   1mph /  1.6km/h 72% 0.00in /  0mm 0 W/m2
00:39 61.3 °F /  16.3 °C 52.2 °F /  11.2 °C 29.97in /  1014.8hPa Calm   3mph /  4.8km/h 72% 0.00in /  0mm 0 W/m2
00:44 61.3 °F /  16.3 °C 52.2 °F /  11.2 °C 29.97in /  1014.8hPa Calm     72% 0.00in /  0mm 0 W/m2
00:49 61.3 °F /  16.3 °C 52.7 °F /  11.5 °C 29.97in /  1014.8hPa Calm   3mph /  4.8km/h 73% 0.00in /  0mm 0 W/m2
00:54 61.3 °F /  16.3 °C 52.7 °F /  11.5 °C 29.97in /  1014.8hPa Calm   3mph /  4.8km/h 73% 0.00in /  0mm 0 W/m2
00:59 61.5 °F /  16.4 °C 53.2 °F /  11.8 °C 29.96in /  1014.4hPa WNW 0.9mph /  1.4km/h 3mph /  4.8km/h 74% 0.00in /  0mm 0 W/m2
01:04 61.7 °F /  16.5 °C 53.2 °F /  11.8 °C 29.97in /  1014.8hPa Calm   5mph /  8km/h 74% 0.00in /  0mm 0 W/m2
01:09 61.5 °F /  16.4 °C 53.6 °F /  12 °C 29.97in /  1014.8hPa Calm   2mph /  3.2km/h 75% 0.00in /  0mm 0 W/m2
01:14 61.3 °F /  16.3 °C 53.8 °F /  12.1 °C 29.97in /  1014.8hPa WNW 0.9mph /  1.4km/h 3mph /  4.8km/h 76% 0.00in /  0mm 0 W/m2
01:19 61.2 °F /  16.2 °C 54.3 °F /  12.4 °C 29.96in /  1014.4hPa Calm   3mph /  4.8km/h 78% 0.00in /  0mm 0 W/m2
01:24 61.2 °F /  16.2 °C 54.7 °F /  12.6 °C 29.96in /  1014.4hPa WNW 0.9mph /  1.4km/h 3mph /  4.8km/h 79% 0.00in /  0mm 0 W/m2
01:29 61.2 °F /  16.2 °C 54.9 °F /  12.7 °C 29.96in /  1014.4hPa Calm     80% 0.00in /  0mm 0 W/m2
01:34 61.2 °F /  16.2 °C 55.2 °F /  12.9 °C 29.96in /  1014.4hPa Calm     81% 0.00in /  0mm 0 W/m2
01:39 61.2 °F /  16.2 °C 55.2 °F /  12.9 °C 29.96in /  1014.4hPa Calm     81% 0.00in /  0mm 0 W/m2
01:44 61.2 °F /  16.2 °C 55.6 °F /  13.1 °C 29.96in /  1014.4hPa Calm     82% 0.00in /  0mm 0 W/m2
01:49 61.2 °F /  16.2 °C 55.6 °F /  13.1 °C 29.95in /  1014.1hPa Calm     82% 0.00in /  0mm 0 W/m2
01:54 61.2 °F /  16.2 °C 55.9 °F /  13.3 °C 29.95in /  1014.1hPa WNW 1mph /  1.6km/h 1mph /  1.6km/h 83% 0.00in /  0mm 0 W/m2
01:59 61 °F /  16.1 °C 55.8 °F /  13.2 °C 29.95in /  1014.1hPa Calm     83% 0.00in /  0mm 0 W/m2
02:04 61 °F /  16.1 °C 56.1 °F /  13.4 °C 29.95in /  1014.1hPa Calm     84% 0.00in /  0mm 0 W/m2
02:09 60.8 °F /  16 °C 55.9 °F /  13.3 °C 29.95in /  1014.1hPa Calm     84% 0.00in /  0mm 0 W/m2
02:14 60.8 °F /  16 °C 55.9 °F /  13.3 °C 29.95in /  1014.1hPa Calm     84% 0.00in /  0mm 0 W/m2
02:19 60.6 °F /  15.9 °C 56.1 °F /  13.4 °C 29.95in /  1014.1hPa Calm   2mph /  3.2km/h 85% 0.00in /  0mm 0 W/m2
02:24 60.6 °F /  15.9 °C 56.1 °F /  13.4 °C 29.95in /  1014.1hPa Calm   1mph /  1.6km/h 85% 0.00in /  0mm 0 W/m2
02:29 60.6 °F /  15.9 °C 56.1 °F /  13.4 °C 29.95in /  1014.1hPa Calm   2mph /  3.2km/h 85% 0.00in /  0mm 0 W/m2
02:34 60.6 °F /  15.9 °C 56.5 °F /  13.6 °C 29.94in /  1013.8hPa Calm   4mph /  6.4km/h 86% 0.00in /  0mm 0 W/m2
02:39 60.6 °F /  15.9 °C 56.5 °F /  13.6 °C 29.94in /  1013.8hPa WNW 0.9mph /  1.4km/h 3mph /  4.8km/h 86% 0.00in /  0mm 0 W/m2
02:44 60.6 °F /  15.9 °C 56.5 °F /  13.6 °C 29.94in /  1013.8hPa Calm   2mph /  3.2km/h 86% 0.00in /  0mm 0 W/m2
02:49 60.4 °F /  15.8 °C 56.3 °F /  13.5 °C 29.94in /  1013.8hPa Calm   3mph /  4.8km/h 86% 0.00in /  0mm 0 W/m2
02:54 60.4 °F /  15.8 °C 56.3 °F /  13.5 °C 29.94in /  1013.8hPa Calm   1mph /  1.6km/h 86% 0.00in /  0mm 0 W/m2
02:59 60.3 °F /  15.7 °C 56.3 °F /  13.5 °C 29.94in /  1013.8hPa Calm   1mph /  1.6km/h 87% 0.00in /  0mm 0 W/m2
03:04 60.3 °F /  15.7 °C 56.3 °F /  13.5 °C 29.93in /  1013.4hPa Calm     87% 0.00in /  0mm 0 W/m2
03:09 60.3 °F /  15.7 °C 56.3 °F /  13.5 °C 29.93in /  1013.4hPa Calm   2mph /  3.2km/h 87% 0.00in /  0mm 0 W/m2
03:14 60.3 °F /  15.7 °C 56.3 °F /  13.5 °C 29.93in /  1013.4hPa Calm   1mph /  1.6km/h 87% 0.00in /  0mm 0 W/m2
03:19 60.3 °F /  15.7 °C 56.3 °F /  13.5 °C 29.93in /  1013.4hPa Calm     87% 0.00in /  0mm 0 W/m2
03:24 60.3 °F /  15.7 °C 56.7 °F /  13.7 °C 29.93in /  1013.4hPa Calm     88% 0.00in /  0mm 0 W/m2
03:29 60.1 °F /  15.6 °C 56.5 °F /  13.6 °C 29.94in /  1013.8hPa Calm     88% 0.00in /  0mm 0 W/m2
03:34 60.1 °F /  15.6 °C 56.5 °F /  13.6 °C 29.93in /  1013.4hPa Calm     88% 0.00in /  0mm 0 W/m2
03:39 59.9 °F /  15.5 °C 56.3 °F /  13.5 °C 29.93in /  1013.4hPa Calm   1mph /  1.6km/h 88% 0.00in /  0mm 0 W/m2
03:44 59.9 °F /  15.5 °C 56.3 °F /  13.5 °C 29.93in /  1013.4hPa WNW 0.9mph /  1.4km/h 2mph /  3.2km/h 88% 0.00in /  0mm 0 W/m2
03:49 59.9 °F /  15.5 °C 56.3 °F /  13.5 °C 29.93in /  1013.4hPa WNW 0.9mph /  1.4km/h 3mph /  4.8km/h 88% 0.00in /  0mm 0 W/m2
03:54 59.9 °F /  15.5 °C 56.3 °F /  13.5 °C 29.93in /  1013.4hPa Calm   3mph /  4.8km/h 88% 0.00in /  0mm 0 W/m2
03:59 59.9 °F /  15.5 °C 56.3 °F /  13.5 °C 29.93in /  1013.4hPa WNW 0.9mph /  1.4km/h 2mph /  3.2km/h 88% 0.00in /  0mm 0 W/m2
04:04 60.1 °F /  15.6 °C 56.5 °F /  13.6 °C 29.93in /  1013.4hPa Calm     88% 0.00in /  0mm 0 W/m2
04:09 59.9 °F /  15.5 °C 56.3 °F /  13.5 °C 29.93in /  1013.4hPa WNW 4mph /  6.4km/h 4mph /  6.4km/h 88% 0.00in /  0mm 0 W/m2
04:14 59.9 °F /  15.5 °C 56.3 °F /  13.5 °C 29.92in /  1013.1hPa Calm   2mph /  3.2km/h 88% 0.00in /  0mm 0 W/m2
04:19 59.9 °F /  15.5 °C 56.3 °F /  13.5 °C 29.93in /  1013.4hPa WNW 2mph /  3.2km/h 4mph /  6.4km/h 88% 0.00in /  0mm 0 W/m2
04:24 59.9 °F /  15.5 °C 56.3 °F /  13.5 °C 29.92in /  1013.1hPa Calm   1mph /  1.6km/h 88% 0.00in /  0mm 0 W/m2
04:29 60.1 °F /  15.6 °C 56.5 °F /  13.6 °C 29.92in /  1013.1hPa Calm   2mph /  3.2km/h 88% 0.00in /  0mm 0 W/m2
04:34 60.1 °F /  15.6 °C 56.8 °F /  13.8 °C 29.92in /  1013.1hPa Calm   1mph /  1.6km/h 89% 0.00in /  0mm 0 W/m2
04:39 59.9 °F /  15.5 °C 56.7 °F /  13.7 °C 29.92in /  1013.1hPa WNW 0.9mph /  1.4km/h 2mph /  3.2km/h 89% 0.00in /  0mm 0 W/m2
04:44 60.1 °F /  15.6 °C 56.8 °F /  13.8 °C 29.92in /  1013.1hPa Calm     89% 0.00in /  0mm 0 W/m2
04:49 59.9 °F /  15.5 °C 56.7 °F /  13.7 °C 29.92in /  1013.1hPa Calm   2mph /  3.2km/h 89% 0.00in /  0mm 0 W/m2
04:54 59.9 °F /  15.5 °C 56.7 °F /  13.7 °C 29.92in /  1013.1hPa WNW 0.9mph /  1.4km/h 1mph /  1.6km/h 89% 0.00in /  0mm 0 W/m2
04:59 59.9 °F /  15.5 °C 56.7 °F /  13.7 °C 29.92in /  1013.1hPa Calm     89% 0.00in /  0mm 0 W/m2
05:04 59.9 °F /  15.5 °C 56.7 °F /  13.7 °C 29.92in /  1013.1hPa WNW 3mph /  4.8km/h 3mph /  4.8km/h 89% 0.00in /  0mm 0 W/m2
05:09 59.9 °F /  15.5 °C 56.3 °F /  13.5 °C 29.92in /  1013.1hPa WNW 0.9mph /  1.4km/h 1mph /  1.6km/h 88% 0.00in /  0mm 0 W/m2
05:14 59.9 °F /  15.5 °C 56.3 °F /  13.5 °C 29.93in /  1013.4hPa WNW 2.9mph /  4.7km/h 3mph /  4.8km/h 88% 0.00in /  0mm 0 W/m2
05:19 59.9 °F /  15.5 °C 56.3 °F /  13.5 °C 29.92in /  1013.1hPa Calm   3mph /  4.8km/h 88% 0.00in /  0mm 0 W/m2
05:24 59.9 °F /  15.5 °C 56.3 °F /  13.5 °C 29.92in /  1013.1hPa Calm   2mph /  3.2km/h 88% 0.00in /  0mm 0 W/m2
05:29 59.9 °F /  15.5 °C 56.3 °F /  13.5 °C 29.92in /  1013.1hPa Calm     88% 0.00in /  0mm 5 W/m2
05:34 59.7 °F /  15.4 °C 56.1 °F /  13.4 °C 29.92in /  1013.1hPa Calm     88% 0.00in /  0mm 7 W/m2
05:39 59.7 °F /  15.4 °C 56.1 °F /  13.4 °C 29.92in /  1013.1hPa Calm     88% 0.00in /  0mm 9 W/m2
05:44 59.9 °F /  15.5 °C 56.3 °F /  13.5 °C 29.92in /  1013.1hPa Calm   2mph /  3.2km/h 88% 0.00in /  0mm 11 W/m2
05:49 59.7 °F /  15.4 °C 56.1 °F /  13.4 °C 29.92in /  1013.1hPa Calm   2mph /  3.2km/h 88% 0.00in /  0mm 14 W/m2
05:54 59.7 °F /  15.4 °C 56.1 °F /  13.4 °C 29.92in /  1013.1hPa Calm     88% 0.00in /  0mm 16 W/m2
05:59 59.7 °F /  15.4 °C 56.1 °F /  13.4 °C 29.92in /  1013.1hPa Calm   2mph /  3.2km/h 88% 0.00in /  0mm 16 W/m2
06:04 59.7 °F /  15.4 °C 56.1 °F /  13.4 °C 29.92in /  1013.1hPa Calm     88% 0.00in /  0mm 19 W/m2
06:09 59.9 °F /  15.5 °C 56.3 °F /  13.5 °C 29.92in /  1013.1hPa Calm   3mph /  4.8km/h 88% 0.00in /  0mm 25 W/m2
06:14 59.9 °F /  15.5 °C 56.3 °F /  13.5 °C 29.92in /  1013.1hPa Calm   1mph /  1.6km/h 88% 0.00in /  0mm 25 W/m2
06:19 59.9 °F /  15.5 °C 56.3 °F /  13.5 °C 29.92in /  1013.1hPa WNW 0.9mph /  1.4km/h 2mph /  3.2km/h 88% 0.00in /  0mm 28 W/m2
06:24 59.9 °F /  15.5 °C 56.3 °F /  13.5 °C 29.92in /  1013.1hPa WNW 0.9mph /  1.4km/h 2mph /  3.2km/h 88% 0.00in /  0mm 30 W/m2
06:29 60.1 °F /  15.6 °C 56.5 °F /  13.6 °C 29.92in /  1013.1hPa WNW 2mph /  3.2km/h 3mph /  4.8km/h 88% 0.00in /  0mm 37 W/m2
06:34 60.1 °F /  15.6 °C 56.5 °F /  13.6 °C 29.92in /  1013.1hPa Calm   2mph /  3.2km/h 88% 0.00in /  0mm 44 W/m2
06:39 60.3 °F /  15.7 °C 56.7 °F /  13.7 °C 29.92in /  1013.1hPa Calm   2mph /  3.2km/h 88% 0.00in /  0mm 39 W/m2
06:44 60.3 °F /  15.7 °C 56.7 °F /  13.7 °C 29.91in /  1012.8hPa Calm   1mph /  1.6km/h 88% 0.00in /  0mm 51 W/m2
06:49 60.4 °F /  15.8 °C 56.8 °F /  13.8 °C 29.92in /  1013.1hPa WNW 2mph /  3.2km/h 3mph /  4.8km/h 88% 0.00in /  0mm 49 W/m2
06:54 60.4 °F /  15.8 °C 56.8 °F /  13.8 °C 29.92in /  1013.1hPa WNW 2mph /  3.2km/h 4mph /  6.4km/h 88% 0.00in /  0mm 44 W/m2
06:59 60.4 °F /  15.8 °C 56.8 °F /  13.8 °C 29.92in /  1013.1hPa WNW 0.9mph /  1.4km/h 4mph /  6.4km/h 88% 0.00in /  0mm 28 W/m2
07:04 60.4 °F /  15.8 °C 56.8 °F /  13.8 °C 29.92in /  1013.1hPa WNW 2.9mph /  4.7km/h 3mph /  4.8km/h 88% 0.00in /  0mm 26 W/m2
07:09 60.4 °F /  15.8 °C 56.8 °F /  13.8 °C 29.92in /  1013.1hPa WNW 0.9mph /  1.4km/h 2mph /  3.2km/h 88% 0.00in /  0mm 37 W/m2
07:14 60.4 °F /  15.8 °C 56.8 °F /  13.8 °C 29.92in /  1013.1hPa WNW 2mph /  3.2km/h 4mph /  6.4km/h 88% 0.00in /  0mm 42 W/m2
07:19 60.4 °F /  15.8 °C 56.8 °F /  13.8 °C 29.92in /  1013.1hPa WNW 2mph /  3.2km/h 3mph /  4.8km/h 88% 0.00in /  0mm 39 W/m2
07:24 60.6 °F /  15.9 °C 57 °F /  13.9 °C 29.92in /  1013.1hPa WNW 2mph /  3.2km/h 2mph /  3.2km/h 88% 0.00in /  0mm 54 W/m2
07:29 60.8 °F /  16 °C 57.2 °F /  14 °C 29.92in /  1013.1hPa Calm   3mph /  4.8km/h 88% 0.00in /  0mm 88 W/m2
07:34 61 °F /  16.1 °C 57.4 °F /  14.1 °C 29.92in /  1013.1hPa West 5mph /  8km/h 5mph /  8km/h 88% 0.00in /  0mm 67 W/m2
07:39 61.2 °F /  16.2 °C 57.6 °F /  14.2 °C 29.92in /  1013.1hPa West 0.9mph /  1.4km/h 4mph /  6.4km/h 88% 0.00in /  0mm 84 W/m2
07:44 61.2 °F /  16.2 °C 57.6 °F /  14.2 °C 29.92in /  1013.1hPa West 4mph /  6.4km/h 5mph /  8km/h 88% 0.00in /  0mm 90 W/m2
07:49 61.2 °F /  16.2 °C 57.6 °F /  14.2 °C 29.92in /  1013.1hPa Calm   2mph /  3.2km/h 88% 0.00in /  0mm 74 W/m2
07:54 61.3 °F /  16.3 °C 57.4 °F /  14.1 °C 29.92in /  1013.1hPa West 0.9mph /  1.4km/h 3mph /  4.8km/h 87% 0.00in /  0mm 56 W/m2
07:59 61.3 °F /  16.3 °C 57.4 °F /  14.1 °C 29.92in /  1013.1hPa Calm   3mph /  4.8km/h 87% 0.00in /  0mm 60 W/m2
08:04 61.5 °F /  16.4 °C 57.6 °F /  14.2 °C 29.92in /  1013.1hPa West 2mph /  3.2km/h 4mph /  6.4km/h 87% 0.00in /  0mm 134 W/m2
08:09 61.5 °F /  16.4 °C 57.6 °F /  14.2 °C 29.92in /  1013.1hPa West 2.9mph /  4.7km/h 4mph /  6.4km/h 87% 0.00in /  0mm 148 W/m2
08:14 61.7 °F /  16.5 °C 57.7 °F /  14.3 °C 29.92in /  1013.1hPa WSW 7mph /  11.3km/h 7mph /  11.3km/h 87% 0.00in /  0mm 185 W/m2
08:19 61.9 °F /  16.6 °C 57.9 °F /  14.4 °C 29.92in /  1013.1hPa NW 0.9mph /  1.4km/h 6mph /  9.7km/h 87% 0.00in /  0mm 262 W/m2
08:24 62.2 °F /  16.8 °C 58.3 °F /  14.6 °C 29.92in /  1013.1hPa NW 2.9mph /  4.7km/h 4mph /  6.4km/h 87% 0.00in /  0mm 315 W/m2
08:29 63 °F /  17.2 °C 58.6 °F /  14.8 °C 29.92in /  1013.1hPa NW 0.9mph /  1.4km/h 5mph /  8km/h 86% 0.00in /  0mm 237 W/m2
08:34 63.1 °F /  17.3 °C 58.6 °F /  14.8 °C 29.92in /  1013.1hPa Calm   3mph /  4.8km/h 85% 0.00in /  0mm 132 W/m2
08:39 63.1 °F /  17.3 °C 58.3 °F /  14.6 °C 29.92in /  1013.1hPa West 2.9mph /  4.7km/h 6mph /  9.7km/h 84% 0.00in /  0mm 199 W/m2
08:44 63.3 °F /  17.4 °C 58.5 °F /  14.7 °C 29.92in /  1013.1hPa West 2mph /  3.2km/h 7mph /  11.3km/h 84% 0.00in /  0mm 216 W/m2
08:49 63.5 °F /  17.5 °C 58.3 °F /  14.6 °C 29.92in /  1013.1hPa WSW 2mph /  3.2km/h 5mph /  8km/h 83% 0.00in /  0mm 144 W/m2
08:54 63.5 °F /  17.5 °C 58.3 °F /  14.6 °C 29.92in /  1013.1hPa WSW 2mph /  3.2km/h 4mph /  6.4km/h 83% 0.00in /  0mm 97 W/m2
08:59 63.7 °F /  17.6 °C 58.5 °F /  14.7 °C 29.92in /  1013.1hPa WSW 2mph /  3.2km/h 5mph /  8km/h 83% 0.00in /  0mm 114 W/m2
09:04 63.7 °F /  17.6 °C 58.1 °F /  14.5 °C 29.92in /  1013.1hPa West 6mph /  9.7km/h 7mph /  11.3km/h 82% 0.00in /  0mm 70 W/m2
09:09 63.7 °F /  17.6 °C 57.7 °F /  14.3 °C 29.92in /  1013.1hPa West 6mph /  9.7km/h 9mph /  14.5km/h 81% 0.00in /  0mm 105 W/m2
09:14 63.7 °F /  17.6 °C 57.7 °F /  14.3 °C 29.92in /  1013.1hPa WNW 2.9mph /  4.7km/h 6mph /  9.7km/h 81% 0.00in /  0mm 135 W/m2
09:19 63.9 °F /  17.7 °C 57.9 °F /  14.4 °C 29.92in /  1013.1hPa WSW 2.9mph /  4.7km/h 9mph /  14.5km/h 81% 0.00in /  0mm 290 W/m2
09:24 64.2 °F /  17.9 °C 58.3 °F /  14.6 °C 29.92in /  1013.1hPa West 2.9mph /  4.7km/h 7mph /  11.3km/h 81% 0.00in /  0mm 353 W/m2
09:29 64.2 °F /  17.9 °C 57.9 °F /  14.4 °C 29.92in /  1013.1hPa WSW 2.9mph /  4.7km/h 7mph /  11.3km/h 80% 0.00in /  0mm 155 W/m2
09:34 64.2 °F /  17.9 °C 57.6 °F /  14.2 °C 29.92in /  1013.1hPa Calm   6mph /  9.7km/h 79% 0.00in /  0mm 121 W/m2
09:39 64.4 °F /  18 °C 58.1 °F /  14.5 °C 29.92in /  1013.1hPa WSW 0.9mph /  1.4km/h 3mph /  4.8km/h 80% 0.00in /  0mm 227 W/m2
09:44 64.8 °F /  18.2 °C 58.5 °F /  14.7 °C 29.92in /  1013.1hPa West 4.9mph /  7.9km/h 8mph /  12.9km/h 80% 0.00in /  0mm 309 W/m2
09:49 64.8 °F /  18.2 °C 58.1 °F /  14.5 °C 29.92in /  1013.1hPa West 2mph /  3.2km/h 10mph /  16.1km/h 79% 0.00in /  0mm 385 W/m2
09:54 65.1 °F /  18.4 °C 57.4 °F /  14.1 °C 29.92in /  1013.1hPa West 4.9mph /  7.9km/h 8mph /  12.9km/h 76% 0.00in /  0mm 320 W/m2
09:59 65.1 °F /  18.4 °C 57 °F /  13.9 °C 29.91in /  1012.8hPa West 2mph /  3.2km/h 7mph /  11.3km/h 75% 0.00in /  0mm 200 W/m2
10:04 65.3 °F /  18.5 °C 57.2 °F /  14 °C 29.92in /  1013.1hPa WNW 2mph /  3.2km/h 8mph /  12.9km/h 75% 0.00in /  0mm 130 W/m2
10:09 65.1 °F /  18.4 °C 57 °F /  13.9 °C 29.92in /  1013.1hPa WNW 10mph /  16.1km/h 10mph /  16.1km/h 75% 0.00in /  0mm 76 W/m2
10:14 65.1 °F /  18.4 °C 57 °F /  13.9 °C 29.92in /  1013.1hPa West 6.9mph /  11.1km/h 7mph /  11.3km/h 75% 0.00in /  0mm 69 W/m2
10:19 64.9 °F /  18.3 °C 57.2 °F /  14 °C 29.92in /  1013.1hPa West 2.9mph /  4.7km/h 8mph /  12.9km/h 76% 0.00in /  0mm 72 W/m2
10:24 64.4 °F /  18 °C 57 °F /  13.9 °C 29.92in /  1013.1hPa WNW 8.9mph /  14.3km/h 13mph /  20.9km/h 77% 0.00in /  0mm 104 W/m2
10:29 64.2 °F /  17.9 °C 56.8 °F /  13.8 °C 29.93in /  1013.4hPa West 6mph /  9.7km/h 8mph /  12.9km/h 77% 0.00in /  0mm 111 W/m2
10:34 64.2 °F /  17.9 °C 56.8 °F /  13.8 °C 29.93in /  1013.4hPa West 2.9mph /  4.7km/h 8mph /  12.9km/h 77% 0.00in /  0mm 146 W/m2
10:39 64.2 °F /  17.9 °C 56.5 °F /  13.6 °C 29.93in /  1013.4hPa WNW 0.9mph /  1.4km/h 8mph /  12.9km/h 76% 0.00in /  0mm 134 W/m2
10:44 64.2 °F /  17.9 °C 56.5 °F /  13.6 °C 29.93in /  1013.4hPa WNW 9mph /  14.5km/h 9mph /  14.5km/h 76% 0.00in /  0mm 141 W/m2
10:49 64.2 °F /  17.9 °C 56.5 °F /  13.6 °C 29.93in /  1013.4hPa WNW 11mph /  17.7km/h 11mph /  17.7km/h 76% 0.00in /  0mm 141 W/m2
10:54 64.2 °F /  17.9 °C 56.5 °F /  13.6 °C 29.93in /  1013.4hPa West 4mph /  6.4km/h 7mph /  11.3km/h 76% 0.00in /  0mm 185 W/m2
10:59 64.4 °F /  18 °C 56.7 °F /  13.7 °C 29.93in /  1013.4hPa West 0.9mph /  1.4km/h 4mph /  6.4km/h 76% 0.00in /  0mm 193 W/m2
11:04 64.9 °F /  18.3 °C 57.2 °F /  14 °C 29.93in /  1013.4hPa WSW 10mph /  16.1km/h 10mph /  16.1km/h 76% 0.00in /  0mm 188 W/m2
11:09 65.3 °F /  18.5 °C 57.2 °F /  14 °C 29.92in /  1013.1hPa WNW 4.9mph /  7.9km/h 11mph /  17.7km/h 75% 0.00in /  0mm 190 W/m2
11:14 65.1 °F /  18.4 °C 57 °F /  13.9 °C 29.93in /  1013.4hPa West 4mph /  6.4km/h 12mph /  19.3km/h 75% 0.00in /  0mm 192 W/m2
11:19 65.1 °F /  18.4 °C 57 °F /  13.9 °C 29.92in /  1013.1hPa WSW 8.1mph /  13km/h 10mph /  16.1km/h 75% 0.00in /  0mm 223 W/m2
11:24 65.3 °F /  18.5 °C 56.8 °F /  13.8 °C 29.93in /  1013.4hPa Calm   7mph /  11.3km/h 74% 0.00in /  0mm 255 W/m2
11:29 65.7 °F /  18.7 °C 57.2 °F /  14 °C 29.93in /  1013.4hPa WNW 6.9mph /  11.1km/h 10mph /  16.1km/h 74% 0.00in /  0mm 323 W/m2
11:34 65.8 °F /  18.8 °C 57 °F /  13.9 °C 29.92in /  1013.1hPa NW 6.9mph /  11.1km/h 9mph /  14.5km/h 73% 0.00in /  0mm 339 W/m2
11:39 66.2 °F /  19 °C 57.2 °F /  14 °C 29.92in /  1013.1hPa WSW 2mph /  3.2km/h 8mph /  12.9km/h 73% 0.00in /  0mm 274 W/m2
11:44 66.2 °F /  19 °C 56.8 °F /  13.8 °C 29.92in /  1013.1hPa WNW 6.9mph /  11.1km/h 10mph /  16.1km/h 72% 0.00in /  0mm 237 W/m2
11:49 66.2 °F /  19 °C 56.8 °F /  13.8 °C 29.93in /  1013.4hPa WNW 2.9mph /  4.7km/h 10mph /  16.1km/h 72% 0.00in /  0mm 216 W/m2
11:54 66 °F /  18.9 °C 56.7 °F /  13.7 °C 29.93in /  1013.4hPa WNW 4.9mph /  7.9km/h 10mph /  16.1km/h 72% 0.00in /  0mm 257 W/m2
11:59 66.2 °F /  19 °C 56.8 °F /  13.8 °C 29.92in /  1013.1hPa West 4mph /  6.4km/h 8mph /  12.9km/h 72% 0.00in /  0mm 350 W/m2
12:04 66.4 °F /  19.1 °C 56.7 °F /  13.7 °C 29.92in /  1013.1hPa West 8.9mph /  14.3km/h 10mph /  16.1km/h 71% 0.00in /  0mm 360 W/m2
12:09 66.6 °F /  19.2 °C 56.8 °F /  13.8 °C 29.92in /  1013.1hPa NW 0.9mph /  1.4km/h 10mph /  16.1km/h 71% 0.00in /  0mm 429 W/m2
12:14 66.9 °F /  19.4 °C 57.2 °F /  14 °C 29.92in /  1013.1hPa West 4mph /  6.4km/h 7mph /  11.3km/h 71% 0.00in /  0mm 552 W/m2
12:19 67.6 °F /  19.8 °C 57 °F /  13.9 °C 29.92in /  1013.1hPa West 4mph /  6.4km/h 8mph /  12.9km/h 69% 0.00in /  0mm 686 W/m2
12:24 67.8 °F /  19.9 °C 56.8 °F /  13.8 °C 29.92in /  1013.1hPa NW 4mph /  6.4km/h 12mph /  19.3km/h 68% 0.00in /  0mm 309 W/m2
12:29 67.8 °F /  19.9 °C 57.2 °F /  14 °C 29.92in /  1013.1hPa WNW 6.9mph /  11.1km/h 9mph /  14.5km/h 69% 0.00in /  0mm 195 W/m2
12:34 67.5 °F /  19.7 °C 57 °F /  13.9 °C 29.92in /  1013.1hPa WNW 8.1mph /  13km/h 8mph /  12.9km/h 69% 0.00in /  0mm 239 W/m2
12:39 67.3 °F /  19.6 °C 57.2 °F /  14 °C 29.92in /  1013.1hPa West 2.9mph /  4.7km/h 8mph /  12.9km/h 70% 0.00in /  0mm 285 W/m2
12:44 67.3 °F /  19.6 °C 57.2 °F /  14 °C 29.92in /  1013.1hPa West 4mph /  6.4km/h 9mph /  14.5km/h 70% 0.00in /  0mm 262 W/m2
12:49 67.5 °F /  19.7 °C 57 °F /  13.9 °C 29.92in /  1013.1hPa West 2.9mph /  4.7km/h 11mph /  17.7km/h 69% 0.00in /  0mm 234 W/m2
12:54 67.1 °F /  19.5 °C 57 °F /  13.9 °C 29.92in /  1013.1hPa WNW 6.9mph /  11.1km/h 9mph /  14.5km/h 70% 0.00in /  0mm 169 W/m2
12:59 66.9 °F /  19.4 °C 56.8 °F /  13.8 °C 29.92in /  1013.1hPa West 0.9mph /  1.4km/h 7mph /  11.3km/h 70% 0.00in /  0mm 174 W/m2
13:04 66.9 °F /  19.4 °C 56.8 °F /  13.8 °C 29.92in /  1013.1hPa WNW 2mph /  3.2km/h 6mph /  9.7km/h 70% 0.00in /  0mm 265 W/m2
13:09 66.9 °F /  19.4 °C 56.8 °F /  13.8 °C 29.92in /  1013.1hPa West 4mph /  6.4km/h 9mph /  14.5km/h 70% 0.00in /  0mm 397 W/m2
13:14 67.5 °F /  19.7 °C 57 °F /  13.9 °C 29.92in /  1013.1hPa WSW 6mph /  9.7km/h 7mph /  11.3km/h 69% 0.00in /  0mm 438 W/m2
13:19 67.8 °F /  19.9 °C 56.8 °F /  13.8 °C 29.92in /  1013.1hPa WSW 2mph /  3.2km/h 10mph /  16.1km/h 68% 0.00in /  0mm 606 W/m2
13:24 67.8 °F /  19.9 °C 56.8 °F /  13.8 °C 29.92in /  1013.1hPa WSW 2mph /  3.2km/h 8mph /  12.9km/h 68% 0.00in /  0mm 418 W/m2
13:29 68.4 °F /  20.2 °C 57.4 °F /  14.1 °C 29.92in /  1013.1hPa West 4.9mph /  7.9km/h 6mph /  9.7km/h 68% 0.00in /  0mm 258 W/m2
13:34 68.2 °F /  20.1 °C 57.2 °F /  14 °C 29.92in /  1013.1hPa SW 4mph /  6.4km/h 10mph /  16.1km/h 68% 0.00in /  0mm 246 W/m2
13:39 67.8 °F /  19.9 °C 56.1 °F /  13.4 °C 29.92in /  1013.1hPa WSW 8.9mph /  14.3km/h 11mph /  17.7km/h 66% 0.00in /  0mm 343 W/m2
13:44 68 °F /  20 °C 56.7 °F /  13.7 °C 29.92in /  1013.1hPa WSW 6mph /  9.7km/h 8mph /  12.9km/h 67% 0.00in /  0mm 294 W/m2
13:49 68.5 °F /  20.3 °C 56.7 °F /  13.7 °C 29.92in /  1013.1hPa WSW 6mph /  9.7km/h 7mph /  11.3km/h 66% 0.00in /  0mm 218 W/m2
13:54 68.5 °F /  20.3 °C 56.3 °F /  13.5 °C 29.91in /  1012.8hPa WSW 4mph /  6.4km/h 11mph /  17.7km/h 65% 0.00in /  0mm 278 W/m2
13:59 68.7 °F /  20.4 °C 56.5 °F /  13.6 °C 29.92in /  1013.1hPa NW 6.9mph /  11.1km/h 8mph /  12.9km/h 65% 0.00in /  0mm 316 W/m2
14:04 68.7 °F /  20.4 °C 56.5 °F /  13.6 °C 29.91in /  1012.8hPa West 4.9mph /  7.9km/h 7mph /  11.3km/h 65% 0.00in /  0mm 288 W/m2
14:09 68.5 °F /  20.3 °C 55.9 °F /  13.3 °C 29.91in /  1012.8hPa West 8.9mph /  14.3km/h 13mph /  20.9km/h 64% 0.00in /  0mm 301 W/m2
14:14 68.5 °F /  20.3 °C 55.9 °F /  13.3 °C 29.91in /  1012.8hPa West 8.1mph /  13km/h 10mph /  16.1km/h 64% 0.00in /  0mm 343 W/m2
14:19 68.9 °F /  20.5 °C 57 °F /  13.9 °C 29.91in /  1012.8hPa WNW 6.9mph /  11.1km/h 10mph /  16.1km/h 66% 0.00in /  0mm 371 W/m2
14:24 69.1 °F /  20.6 °C 58.1 °F /  14.5 °C 29.91in /  1012.8hPa NW 4.9mph /  7.9km/h 10mph /  16.1km/h 68% 0.00in /  0mm 448 W/m2
14:29 69.8 °F /  21 °C 58.3 °F /  14.6 °C 29.91in /  1012.8hPa WNW 10.1mph /  16.3km/h 13mph /  20.9km/h 67% 0.00in /  0mm 295 W/m2
14:34 69.4 °F /  20.8 °C 57.9 °F /  14.4 °C 29.91in /  1012.8hPa West 6mph /  9.7km/h 13mph /  20.9km/h 67% 0.00in /  0mm 352 W/m2
14:39 69.4 °F /  20.8 °C 58.5 °F /  14.7 °C 29.91in /  1012.8hPa NW 8.9mph /  14.3km/h 11mph /  17.7km/h 68% 0.00in /  0mm 355 W/m2
14:44 69.4 °F /  20.8 °C 57.9 °F /  14.4 °C 29.91in /  1012.8hPa NNW 6mph /  9.7km/h 13mph /  20.9km/h 67% 0.00in /  0mm 336 W/m2
14:49 69.3 °F /  20.7 °C 58.3 °F /  14.6 °C 29.91in /  1012.8hPa NW 6mph /  9.7km/h 10mph /  16.1km/h 68% 0.00in /  0mm 332 W/m2
14:54 69.4 °F /  20.8 °C 58.5 °F /  14.7 °C 29.91in /  1012.8hPa WNW 6.9mph /  11.1km/h 11mph /  17.7km/h 68% 0.00in /  0mm 534 W/m2
14:59 71.1 °F /  21.7 °C 59.2 °F /  15.1 °C 29.91in /  1012.8hPa West 6.9mph /  11.1km/h 10mph /  16.1km/h 66% 0.00in /  0mm 422 W/m2
15:04 71.2 °F /  21.8 °C 58.8 °F /  14.9 °C 29.91in /  1012.8hPa WSW 12mph /  19.3km/h 12mph /  19.3km/h 65% 0.00in /  0mm 441 W/m2
15:08 70.3 °F /  21.3 °C 58.5 °F /  14.7 °C 29.91in /  1012.8hPa West 4.9mph /  7.9km/h 12mph /  19.3km/h 66% 0.00in /  0mm 315 W/m2
15:14 70.2 °F /  21.2 °C 57.9 °F /  14.4 °C 29.91in /  1012.8hPa West 6.9mph /  11.1km/h 11mph /  17.7km/h 65% 0.00in /  0mm 348 W/m2
15:19 70.7 °F /  21.5 °C 58.3 °F /  14.6 °C 29.91in /  1012.8hPa West 12.1mph /  19.5km/h 13mph /  20.9km/h 65% 0.00in /  0mm 292 W/m2
15:24 72.1 °F /  22.3 °C 59.4 °F /  15.2 °C 29.91in /  1012.8hPa West 6.9mph /  11.1km/h 10mph /  16.1km/h 64% 0.00in /  0mm 979 W/m2
15:29 71.6 °F /  22 °C 58.8 °F /  14.9 °C 29.91in /  1012.8hPa Calm   13mph /  20.9km/h 64% 0.00in /  0mm 937 W/m2
15:34 72.3 °F /  22.4 °C 59 °F /  15 °C 29.91in /  1012.8hPa WNW 2.9mph /  4.7km/h 13mph /  20.9km/h 63% 0.00in /  0mm 206 W/m2
15:39 71.4 °F /  21.9 °C 58.6 °F /  14.8 °C 29.91in /  1012.8hPa West 4.9mph /  7.9km/h 16mph /  25.7km/h 64% 0.00in /  0mm 236 W/m2
15:44 72 °F /  22.2 °C 58.6 °F /  14.8 °C 29.90in /  1012.4hPa West 8.9mph /  14.3km/h 16mph /  25.7km/h 63% 0.00in /  0mm 875 W/m2
15:49 72.3 °F /  22.4 °C 59 °F /  15 °C 29.90in /  1012.4hPa Calm   8mph /  12.9km/h 63% 0.00in /  0mm 856 W/m2
15:54 72 °F /  22.2 °C 57.7 °F /  14.3 °C 29.90in /  1012.4hPa WNW 12.1mph /  19.5km/h 15mph /  24.1km/h 61% 0.00in /  0mm 214 W/m2
15:59 72 °F /  22.2 °C 58.3 °F /  14.6 °C 29.90in /  1012.4hPa WNW 4mph /  6.4km/h 16mph /  25.7km/h 62% 0.00in /  0mm 853 W/m2
16:04 72.1 °F /  22.3 °C 58.8 °F /  14.9 °C 29.90in /  1012.4hPa WNW 4.9mph /  7.9km/h 13mph /  20.9km/h 63% 0.00in /  0mm 199 W/m2
16:09 71.4 °F /  21.9 °C 58.1 °F /  14.5 °C 29.90in /  1012.4hPa West 6.9mph /  11.1km/h 12mph /  19.3km/h 63% 0.00in /  0mm 290 W/m2
16:14 71.4 °F /  21.9 °C 58.6 °F /  14.8 °C 29.91in /  1012.8hPa West 8.9mph /  14.3km/h 14mph /  22.5km/h 64% 0.00in /  0mm 410 W/m2
16:19 72.5 °F /  22.5 °C 59.2 °F /  15.1 °C 29.91in /  1012.8hPa WNW 10.1mph /  16.3km/h 13mph /  20.9km/h 63% 0.00in /  0mm 802 W/m2
16:24 72.1 °F /  22.3 °C 59.4 °F /  15.2 °C 29.91in /  1012.8hPa West 4.9mph /  7.9km/h 12mph /  19.3km/h 64% 0.00in /  0mm 791 W/m2
16:29 71.6 °F /  22 °C 58.8 °F /  14.9 °C 29.90in /  1012.4hPa WNW 8.1mph /  13km/h 15mph /  24.1km/h 64% 0.00in /  0mm 476 W/m2
16:34 71.4 °F /  21.9 °C 59 °F /  15 °C 29.90in /  1012.4hPa NW 8.1mph /  13km/h 11mph /  17.7km/h 65% 0.00in /  0mm 482 W/m2
16:39 72.1 °F /  22.3 °C 59.7 °F /  15.4 °C 29.90in /  1012.4hPa NW 8.9mph /  14.3km/h 9mph /  14.5km/h 65% 0.00in /  0mm 362 W/m2
16:44 72.1 °F /  22.3 °C 59.4 °F /  15.2 °C 29.90in /  1012.4hPa WNW 4.9mph /  7.9km/h 10mph /  16.1km/h 64% 0.00in /  0mm 332 W/m2
16:49 72.3 °F /  22.4 °C 59.5 °F /  15.3 °C 29.90in /  1012.4hPa WNW 13mph /  20.9km/h 14mph /  22.5km/h 64% 0.00in /  0mm 809 W/m2
16:54 73 °F /  22.8 °C 60.6 °F /  15.9 °C 29.90in /  1012.4hPa WNW 4.9mph /  7.9km/h 10mph /  16.1km/h 65% 0.00in /  0mm 796 W/m2
16:59 72.5 °F /  22.5 °C 59.5 °F /  15.3 °C 29.90in /  1012.4hPa NW 6.9mph /  11.1km/h 15mph /  24.1km/h 64% 0.00in /  0mm 267 W/m2
17:04 72.3 °F /  22.4 °C 59.5 °F /  15.3 °C 29.90in /  1012.4hPa WNW 6.9mph /  11.1km/h 11mph /  17.7km/h 64% 0.00in /  0mm 802 W/m2
17:09 72.9 °F /  22.7 °C 59.9 °F /  15.5 °C 29.90in /  1012.4hPa NNW 11mph /  17.7km/h 11mph /  17.7km/h 64% 0.00in /  0mm 171 W/m2
17:14 72 °F /  22.2 °C 59.2 °F /  15.1 °C 29.90in /  1012.4hPa West 4mph /  6.4km/h 12mph /  19.3km/h 64% 0.00in /  0mm 223 W/m2
17:19 72 °F /  22.2 °C 59.5 °F /  15.3 °C 29.90in /  1012.4hPa West 8.9mph /  14.3km/h 14mph /  22.5km/h 65% 0.00in /  0mm 714 W/m2
17:24 72 °F /  22.2 °C 59.5 °F /  15.3 °C 29.90in /  1012.4hPa NW 4.9mph /  7.9km/h 11mph /  17.7km/h 65% 0.00in /  0mm 529 W/m2
17:29 72 °F /  22.2 °C 59.5 °F /  15.3 °C 29.90in /  1012.4hPa NW 6mph /  9.7km/h 12mph /  19.3km/h 65% 0.00in /  0mm 287 W/m2
17:34 71.2 °F /  21.8 °C 58.8 °F /  14.9 °C 29.90in /  1012.4hPa NNW 4.9mph /  7.9km/h 11mph /  17.7km/h 65% 0.00in /  0mm 199 W/m2
17:39 71.1 °F /  21.7 °C 59.2 °F /  15.1 °C 29.90in /  1012.4hPa WNW 2.9mph /  4.7km/h 7mph /  11.3km/h 66% 0.00in /  0mm 246 W/m2
17:44 70.9 °F /  21.6 °C 59 °F /  15 °C 29.90in /  1012.4hPa WNW 2.9mph /  4.7km/h 12mph /  19.3km/h 66% 0.00in /  0mm 276 W/m2
17:49 70.7 °F /  21.5 °C 59.2 °F /  15.1 °C 29.90in /  1012.4hPa West 4mph /  6.4km/h 7mph /  11.3km/h 67% 0.00in /  0mm 251 W/m2
17:54 70.7 °F /  21.5 °C 59.2 °F /  15.1 °C 29.90in /  1012.4hPa WSW 6mph /  9.7km/h 10mph /  16.1km/h 67% 0.00in /  0mm 343 W/m2
17:59 70.9 °F /  21.6 °C 59.4 °F /  15.2 °C 29.90in /  1012.4hPa West 13mph /  20.9km/h 13mph /  20.9km/h 67% 0.00in /  0mm 237 W/m2
18:04 70.7 °F /  21.5 °C 59.2 °F /  15.1 °C 29.90in /  1012.4hPa WNW 4.9mph /  7.9km/h 12mph /  19.3km/h 67% 0.00in /  0mm 357 W/m2
18:09 70.2 °F /  21.2 °C 59.2 °F /  15.1 °C 29.90in /  1012.4hPa NW 8.9mph /  14.3km/h 11mph /  17.7km/h 68% 0.00in /  0mm 202 W/m2
18:14 70.3 °F /  21.3 °C 59.4 °F /  15.2 °C 29.90in /  1012.4hPa WNW 2.9mph /  4.7km/h 11mph /  17.7km/h 68% 0.00in /  0mm 304 W/m2
18:19 70.5 °F /  21.4 °C 59.4 °F /  15.2 °C 29.90in /  1012.4hPa Calm   10mph /  16.1km/h 68% 0.00in /  0mm 200 W/m2
18:24 70.2 °F /  21.2 °C 59.2 °F /  15.1 °C 29.90in /  1012.4hPa West 0.9mph /  1.4km/h 4mph /  6.4km/h 68% 0.00in /  0mm 214 W/m2
18:29 70.7 °F /  21.5 °C 58.8 °F /  14.9 °C 29.90in /  1012.4hPa WNW 6mph /  9.7km/h 10mph /  16.1km/h 66% 0.00in /  0mm 380 W/m2
18:34 70.7 °F /  21.5 °C 58.8 °F /  14.9 °C 29.90in /  1012.4hPa WSW 4.9mph /  7.9km/h 10mph /  16.1km/h 66% 0.00in /  0mm 269 W/m2
18:39 70.3 °F /  21.3 °C 58.5 °F /  14.7 °C 29.90in /  1012.4hPa NW 4mph /  6.4km/h 13mph /  20.9km/h 66% 0.00in /  0mm 283 W/m2
18:44 70.3 °F /  21.3 °C 58.8 °F /  14.9 °C 29.90in /  1012.4hPa North 4.9mph /  7.9km/h 9mph /  14.5km/h 67% 0.00in /  0mm 216 W/m2
18:49 70.3 °F /  21.3 °C 58.8 °F /  14.9 °C 29.90in /  1012.4hPa WSW 8.1mph /  13km/h 11mph /  17.7km/h 67% 0.00in /  0mm 297 W/m2
18:54 70.2 °F /  21.2 °C 58.6 °F /  14.8 °C 29.90in /  1012.4hPa WNW 2.9mph /  4.7km/h 11mph /  17.7km/h 67% 0.00in /  0mm 364 W/m2
18:59 70.5 °F /  21.4 °C 58.6 °F /  14.8 °C 29.90in /  1012.4hPa West 6mph /  9.7km/h 9mph /  14.5km/h 66% 0.00in /  0mm 330 W/m2
19:04 70.3 °F /  21.3 °C 58.5 °F /  14.7 °C 29.90in /  1012.4hPa WNW 8.9mph /  14.3km/h 10mph /  16.1km/h 66% 0.00in /  0mm 120 W/m2
19:09 69.4 °F /  20.8 °C 57.9 °F /  14.4 °C 29.90in /  1012.4hPa WNW 8.1mph /  13km/h 11mph /  17.7km/h 67% 0.00in /  0mm 58 W/m2
19:14 68.9 °F /  20.5 °C 57.9 °F /  14.4 °C 29.90in /  1012.4hPa West 8.1mph /  13km/h 10mph /  16.1km/h 68% 0.00in /  0mm 74 W/m2
19:19 68.5 °F /  20.3 °C 57.9 °F /  14.4 °C 29.90in /  1012.4hPa West 6mph /  9.7km/h 11mph /  17.7km/h 69% 0.00in /  0mm 125 W/m2
19:24 68.4 °F /  20.2 °C 57.7 °F /  14.3 °C 29.89in /  1012.1hPa WNW 4.9mph /  7.9km/h 9mph /  14.5km/h 69% 0.00in /  0mm 144 W/m2
19:29 68.5 °F /  20.3 °C 57.9 °F /  14.4 °C 29.90in /  1012.4hPa WNW 4.9mph /  7.9km/h 7mph /  11.3km/h 69% 0.00in /  0mm 288 W/m2
19:34 69.3 °F /  20.7 °C 58.6 °F /  14.8 °C 29.89in /  1012.1hPa West 2.9mph /  4.7km/h 7mph /  11.3km/h 69% 0.00in /  0mm 279 W/m2
19:39 69.8 °F /  21 °C 58.8 °F /  14.9 °C 29.90in /  1012.4hPa WNW 6.9mph /  11.1km/h 11mph /  17.7km/h 68% 0.00in /  0mm 220 W/m2
19:44 69.4 °F /  20.8 °C 58.5 °F /  14.7 °C 29.89in /  1012.1hPa NW 4.9mph /  7.9km/h 12mph /  19.3km/h 68% 0.00in /  0mm 172 W/m2
19:49 69.4 °F /  20.8 °C 58.5 °F /  14.7 °C 29.90in /  1012.4hPa WNW 2.9mph /  4.7km/h 12mph /  19.3km/h 68% 0.00in /  0mm 148 W/m2
19:54 69.1 °F /  20.6 °C 58.5 °F /  14.7 °C 29.90in /  1012.4hPa WSW 8.1mph /  13km/h 11mph /  17.7km/h 69% 0.00in /  0mm 128 W/m2
19:59 68.7 °F /  20.4 °C 57.7 °F /  14.3 °C 29.90in /  1012.4hPa West 6.9mph /  11.1km/h 10mph /  16.1km/h 68% 0.00in /  0mm 111 W/m2
20:04 68.7 °F /  20.4 °C 57.7 °F /  14.3 °C 29.89in /  1012.1hPa NW 6mph /  9.7km/h 8mph /  12.9km/h 68% 0.00in /  0mm 98 W/m2
20:09 68.7 °F /  20.4 °C 58.1 °F /  14.5 °C 29.89in /  1012.1hPa West 2.9mph /  4.7km/h 9mph /  14.5km/h 69% 0.00in /  0mm 86 W/m2
20:14 68.5 °F /  20.3 °C 57.9 °F /  14.4 °C 29.89in /  1012.1hPa WNW 6mph /  9.7km/h 8mph /  12.9km/h 69% 0.00in /  0mm 32 W/m2
20:19 67.8 °F /  19.9 °C 57.7 °F /  14.3 °C 29.89in /  1012.1hPa West 2mph /  3.2km/h 5mph /  8km/h 70% 0.00in /  0mm 30 W/m2
20:24 67.5 °F /  19.7 °C 57.4 °F /  14.1 °C 29.90in /  1012.4hPa West 6.9mph /  11.1km/h 10mph /  16.1km/h 70% 0.00in /  0mm 28 W/m2
20:29 66.9 °F /  19.4 °C 57.2 °F /  14 °C 29.90in /  1012.4hPa NW 2mph /  3.2km/h 11mph /  17.7km/h 71% 0.00in /  0mm 26 W/m2
20:34 66.7 °F /  19.3 °C 57 °F /  13.9 °C 29.90in /  1012.4hPa West 2mph /  3.2km/h 7mph /  11.3km/h 71% 0.00in /  0mm 26 W/m2
20:39 66.6 °F /  19.2 °C 57.2 °F /  14 °C 29.90in /  1012.4hPa West 6.9mph /  11.1km/h 8mph /  12.9km/h 72% 0.00in /  0mm 28 W/m2
20:44 66.4 °F /  19.1 °C 57 °F /  13.9 °C 29.91in /  1012.8hPa West 4mph /  6.4km/h 9mph /  14.5km/h 72% 0.00in /  0mm 33 W/m2
20:49 66.4 °F /  19.1 °C 57 °F /  13.9 °C 29.91in /  1012.8hPa West 4.9mph /  7.9km/h 10mph /  16.1km/h 72% 0.00in /  0mm 28 W/m2
20:54 66.4 °F /  19.1 °C 57.4 °F /  14.1 °C 29.91in /  1012.8hPa West 8.1mph /  13km/h 9mph /  14.5km/h 73% 0.00in /  0mm 19 W/m2
20:59 66 °F /  18.9 °C 57.2 °F /  14 °C 29.91in /  1012.8hPa West 2.9mph /  4.7km/h 10mph /  16.1km/h 73% 0.00in /  0mm 11 W/m2
21:04 65.8 °F /  18.8 °C 57.4 °F /  14.1 °C 29.91in /  1012.8hPa WSW 4mph /  6.4km/h 6mph /  9.7km/h 74% 0.00in /  0mm 12 W/m2
21:09 65.7 °F /  18.7 °C 57.2 °F /  14 °C 29.91in /  1012.8hPa WSW 4mph /  6.4km/h 11mph /  17.7km/h 74% 0.00in /  0mm 12 W/m2
21:14 65.5 °F /  18.6 °C 57 °F /  13.9 °C 29.91in /  1012.8hPa WSW 4mph /  6.4km/h 10mph /  16.1km/h 74% 0.00in /  0mm 11 W/m2
21:19 65.3 °F /  18.5 °C 56.8 °F /  13.8 °C 29.91in /  1012.8hPa WNW 4mph /  6.4km/h 7mph /  11.3km/h 74% 0.00in /  0mm 7 W/m2
21:24 65.1 °F /  18.4 °C 56.7 °F /  13.7 °C 29.91in /  1012.8hPa West 4.9mph /  7.9km/h 10mph /  16.1km/h 74% 0.00in /  0mm 5 W/m2
21:29 65.1 °F /  18.4 °C 57 °F /  13.9 °C 29.91in /  1012.8hPa West 4mph /  6.4km/h 7mph /  11.3km/h 75% 0.00in /  0mm 0 W/m2
21:34 64.9 °F /  18.3 °C 56.8 °F /  13.8 °C 29.91in /  1012.8hPa WNW 2.9mph /  4.7km/h 7mph /  11.3km/h 75% 0.00in /  0mm 0 W/m2
21:39 64.8 °F /  18.2 °C 56.7 °F /  13.7 °C 29.91in /  1012.8hPa WNW 6.9mph /  11.1km/h 7mph /  11.3km/h 75% 0.00in /  0mm 0 W/m2
21:44 64.6 °F /  18.1 °C 56.5 °F /  13.6 °C 29.91in /  1012.8hPa West 6mph /  9.7km/h 7mph /  11.3km/h 75% 0.00in /  0mm 0 W/m2
21:49 64.6 °F /  18.1 °C 56.5 °F /  13.6 °C 29.91in /  1012.8hPa WNW 4mph /  6.4km/h 6mph /  9.7km/h 75% 0.00in /  0mm 0 W/m2
21:54 64.4 °F /  18 °C 56.7 °F /  13.7 °C 29.91in /  1012.8hPa West 7mph /  11.3km/h 7mph /  11.3km/h 76% 0.00in /  0mm 0 W/m2
21:59 64.4 °F /  18 °C 56.7 °F /  13.7 °C 29.91in /  1012.8hPa West 2mph /  3.2km/h 7mph /  11.3km/h 76% 0.00in /  0mm 0 W/m2
22:04 64.2 °F /  17.9 °C 56.5 °F /  13.6 °C 29.91in /  1012.8hPa West 4mph /  6.4km/h 6mph /  9.7km/h 76% 0.00in /  0mm 0 W/m2
22:09 64 °F /  17.8 °C 56.7 °F /  13.7 °C 29.92in /  1013.1hPa WNW 4.9mph /  7.9km/h 8mph /  12.9km/h 77% 0.00in /  0mm 0 W/m2
22:14 63.9 °F /  17.7 °C 56.5 °F /  13.6 °C 29.92in /  1013.1hPa WNW 4mph /  6.4km/h 6mph /  9.7km/h 77% 0.00in /  0mm 0 W/m2
22:19 63.9 °F /  17.7 °C 56.5 °F /  13.6 °C 29.92in /  1013.1hPa WNW 8mph /  12.9km/h 8mph /  12.9km/h 77% 0.00in /  0mm 0 W/m2
22:24 63.9 °F /  17.7 °C 56.5 °F /  13.6 °C 29.92in /  1013.1hPa WNW 4.9mph /  7.9km/h 8mph /  12.9km/h 77% 0.00in /  0mm 0 W/m2
22:29 63.7 °F /  17.6 °C 56.7 °F /  13.7 °C 29.92in /  1013.1hPa West 4mph /  6.4km/h 7mph /  11.3km/h 78% 0.00in /  0mm 0 W/m2
22:34 63.5 °F /  17.5 °C 56.8 °F /  13.8 °C 29.92in /  1013.1hPa West 4mph /  6.4km/h 6mph /  9.7km/h 79% 0.00in /  0mm 0 W/m2
22:39 63.5 °F /  17.5 °C 56.8 °F /  13.8 °C 29.92in /  1013.1hPa West 6mph /  9.7km/h 8mph /  12.9km/h 79% 0.00in /  0mm 0 W/m2
22:44 63.5 °F /  17.5 °C 56.8 °F /  13.8 °C 29.92in /  1013.1hPa West 4mph /  6.4km/h 9mph /  14.5km/h 79% 0.00in /  0mm 0 W/m2
22:49 63.5 °F /  17.5 °C 56.8 °F /  13.8 °C 29.92in /  1013.1hPa NW 4mph /  6.4km/h 9mph /  14.5km/h 79% 0.00in /  0mm 0 W/m2
22:54 63.3 °F /  17.4 °C 57 °F /  13.9 °C 29.92in /  1013.1hPa NW 6mph /  9.7km/h 9mph /  14.5km/h 80% 0.00in /  0mm 0 W/m2
22:59 63.3 °F /  17.4 °C 57 °F /  13.9 °C 29.92in /  1013.1hPa WNW 2.9mph /  4.7km/h 8mph /  12.9km/h 80% 0.00in /  0mm 0 W/m2
23:04 63.3 °F /  17.4 °C 57 °F /  13.9 °C 29.93in /  1013.4hPa WNW 2.9mph /  4.7km/h 8mph /  12.9km/h 80% 0.00in /  0mm 0 W/m2
23:09 63.3 °F /  17.4 °C 57 °F /  13.9 °C 29.93in /  1013.4hPa WNW 2.9mph /  4.7km/h 12mph /  19.3km/h 80% 0.00in /  0mm 0 W/m2
23:14 63.3 °F /  17.4 °C 57 °F /  13.9 °C 29.93in /  1013.4hPa WNW 4.9mph /  7.9km/h 12mph /  19.3km/h 80% 0.00in /  0mm 0 W/m2
23:19 63.3 °F /  17.4 °C 57 °F /  13.9 °C 29.93in /  1013.4hPa West 4mph /  6.4km/h 8mph /  12.9km/h 80% 0.00in /  0mm 0 W/m2
23:24 63.3 °F /  17.4 °C 57 °F /  13.9 °C 29.92in /  1013.1hPa West 4mph /  6.4km/h 10mph /  16.1km/h 80% 0.00in /  0mm 0 W/m2
23:29 63.1 °F /  17.3 °C 57.2 °F /  14 °C 29.93in /  1013.4hPa West 13mph /  20.9km/h 13mph /  20.9km/h 81% 0.00in /  0mm 0 W/m2
23:34 63 °F /  17.2 °C 57 °F /  13.9 °C 29.93in /  1013.4hPa NW 2.9mph /  4.7km/h 10mph /  16.1km/h 81% 0.00in /  0mm 0 W/m2
23:39 63 °F /  17.2 °C 57 °F /  13.9 °C 29.92in /  1013.1hPa WNW 2.9mph /  4.7km/h 6mph /  9.7km/h 81% 0.00in /  0mm 0 W/m2
23:44 63 °F /  17.2 °C 57 °F /  13.9 °C 29.93in /  1013.4hPa West 2.9mph /  4.7km/h 7mph /  11.3km/h 81% 0.00in /  0mm 0 W/m2
23:49 62.8 °F /  17.1 °C 57.2 °F /  14 °C 29.93in /  1013.4hPa West 6mph /  9.7km/h 7mph /  11.3km/h 82% 0.00in /  0mm 0 W/m2
23:54 62.6 °F /  17 °C 57 °F /  13.9 °C 29.92in /  1013.1hPa WNW 4mph /  6.4km/h 6mph /  9.7km/h 82% 0.00in /  0mm 0 W/m2
23:59 62.4 °F /  16.9 °C 57.2 °F /  14 °C 29.92in /  1013.1hPa West 0.9mph /  1.4km/h 8mph /  12.9km/h 83% 0.00in /  0mm 0 W/m2
Bath Spa Weather
Compliments of Weather Underground - 2 mb